createdAt,value
2016-05-17T00:00:07.094Z,78.63
2016-05-17T00:00:17.109Z,78.63
2016-05-17T00:00:27.109Z,78.63
2016-05-17T00:00:37.109Z,78.53
2016-05-17T00:00:47.109Z,78.82
2016-05-17T00:00:57.125Z,78.53
2016-05-17T00:01:07.128Z,78.82
2016-05-17T00:01:17.143Z,78.63
2016-05-17T00:01:26.987Z,78.63
2016-05-17T00:01:37.143Z,78.82
2016-05-17T00:01:47.143Z,78.63
2016-05-17T00:01:57.143Z,78.67
2016-05-17T00:02:07.146Z,78.63
2016-05-17T00:02:17.162Z,78.82
2016-05-17T00:02:27.162Z,78.77
2016-05-17T00:02:37.162Z,78.77
2016-05-17T00:02:47.162Z,78.48
2016-05-17T00:02:57.162Z,78.25
2016-05-17T00:03:07.180Z,78.34
2016-05-17T00:03:17.180Z,78.38
2016-05-17T00:03:27.180Z,78.57
2016-05-17T00:03:37.180Z,78.48
2016-05-17T00:03:47.195Z,78.38
2016-05-17T00:03:57.211Z,78.34
2016-05-17T00:04:07.198Z,78.44
2016-05-17T00:04:17.214Z,78.34
2016-05-17T00:04:27.058Z,78.34
2016-05-17T00:04:37.214Z,78.44
2016-05-17T00:04:47.230Z,78.48
2016-05-17T00:04:57.230Z,78.44
2016-05-17T00:05:07.232Z,78.67
2016-05-17T00:05:17.232Z,78.63
2016-05-17T00:05:27.232Z,78.72
2016-05-17T00:05:37.247Z,78.67
2016-05-17T00:05:47.091Z,78.72
2016-05-17T00:05:57.263Z,78.63
2016-05-17T00:06:07.250Z,78.72
2016-05-17T00:06:17.125Z,78.72
2016-05-17T00:06:27.578Z,78.63
2016-05-17T00:06:37.266Z,78.82
2016-05-17T00:06:47.281Z,78.57
2016-05-17T00:06:57.281Z,78.63
2016-05-17T00:07:07.284Z,78.63
2016-05-17T00:07:17.300Z,78.63
2016-05-17T00:07:27.128Z,78.57
2016-05-17T00:07:37.144Z,78.63
2016-05-17T00:07:47.300Z,78.48
2016-05-17T00:07:57.300Z,78.44
2016-05-17T00:08:07.302Z,78.44
2016-05-17T00:08:17.318Z,78.44
2016-05-17T00:08:27.318Z,78.44
2016-05-17T00:08:37.318Z,78.53
2016-05-17T00:08:47.318Z,78.57
2016-05-17T00:08:57.333Z,78.72
2016-05-17T00:09:07.336Z,78.77
2016-05-17T00:09:17.336Z,78.72
2016-05-17T00:09:27.196Z,79.2
2016-05-17T00:09:37.196Z,78.67
2016-05-17T00:09:47.352Z,78.63
2016-05-17T00:09:57.352Z,78.91
2016-05-17T00:10:07.214Z,79.05
2016-05-17T00:10:17.355Z,79.01
2016-05-17T00:10:27.371Z,78.91
2016-05-17T00:10:37.386Z,79.01
2016-05-17T00:10:47.386Z,79.05
2016-05-17T00:10:57.386Z,78.82
2016-05-17T00:11:07.389Z,79.01
2016-05-17T00:11:17.389Z,78.82
2016-05-17T00:11:27.249Z,78.72
2016-05-17T00:11:37.405Z,78.72
2016-05-17T00:11:47.405Z,78.72
2016-05-17T00:11:57.405Z,78.86
2016-05-17T00:12:07.423Z,78.96
2016-05-17T00:12:17.423Z,79.01
2016-05-17T00:12:27.439Z,79.11
2016-05-17T00:12:37.423Z,79.3
2016-05-17T00:12:47.423Z,79.01
2016-05-17T00:12:57.439Z,78.77
2016-05-17T00:13:07.285Z,78.82
2016-05-17T00:13:17.441Z,78.86
2016-05-17T00:13:27.441Z,79.24
2016-05-17T00:13:37.300Z,78.91
2016-05-17T00:13:47.300Z,78.82
2016-05-17T00:13:57.457Z,79.39
2016-05-17T00:14:07.475Z,78.77
2016-05-17T00:14:17.475Z,78.77
2016-05-17T00:14:27.475Z,78.82
2016-05-17T00:14:37.335Z,79.01
2016-05-17T00:14:47.491Z,78.86
2016-05-17T00:14:57.491Z,78.82
2016-05-17T00:15:07.493Z,79.05
2016-05-17T00:15:17.493Z,79.2
2016-05-17T00:15:27.352Z,79.2
2016-05-17T00:15:37.509Z,79.2
2016-05-17T00:15:47.509Z,79.3
2016-05-17T00:15:57.509Z,79.3
2016-05-17T00:16:07.527Z,79.05
2016-05-17T00:16:17.527Z,79.24
2016-05-17T00:16:27.527Z,79.2
2016-05-17T00:16:37.527Z,79.49
2016-05-17T00:16:47.543Z,79.49
2016-05-17T00:16:57.543Z,79.3
2016-05-17T00:17:07.546Z,79.39
2016-05-17T00:17:17.561Z,79.2
2016-05-17T00:17:27.561Z,79.3
2016-05-17T00:17:37.561Z,79.3
2016-05-17T00:17:47.561Z,79.52
2016-05-17T00:17:57.561Z,79.49
2016-05-17T00:18:07.563Z,79.14
2016-05-17T00:18:17.579Z,79.2
2016-05-17T00:18:27.579Z,79.2
2016-05-17T00:18:37.579Z,79.01
2016-05-17T00:18:47.595Z,79.2
2016-05-17T00:18:57.595Z,79.14
2016-05-17T00:19:07.599Z,79.14
2016-05-17T00:19:17.614Z,79.11
2016-05-17T00:19:27.614Z,79.2
2016-05-17T00:19:37.458Z,79.05
2016-05-17T00:19:47.614Z,79.11
2016-05-17T00:19:57.614Z,79.3
2016-05-17T00:20:07.632Z,79.01
2016-05-17T00:20:17.632Z,79.05
2016-05-17T00:20:27.632Z,79.2
2016-05-17T00:20:37.648Z,79.01
2016-05-17T00:20:47.491Z,79.33
2016-05-17T00:20:57.648Z,79.11
2016-05-17T00:21:07.651Z,79.01
2016-05-17T00:21:18.010Z,79.2
2016-05-17T00:21:28.557Z,79.24
2016-05-17T00:21:38.541Z,79.11
2016-05-17T00:21:47.510Z,79.3
2016-05-17T00:21:57.682Z,79.2
2016-05-17T00:22:07.529Z,79.01
2016-05-17T00:22:17.794Z,79.14
2016-05-17T00:22:27.700Z,79.01
2016-05-17T00:22:37.685Z,79.58
2016-05-17T00:22:47.700Z,79.3
2016-05-17T00:22:57.700Z,79.14
2016-05-17T00:23:07.702Z,79.86
2016-05-17T00:23:17.702Z,79.49
2016-05-17T00:23:27.718Z,79.58
2016-05-17T00:23:37.718Z,79.11
2016-05-17T00:23:47.734Z,79.3
2016-05-17T00:23:57.577Z,79.72
2016-05-17T00:24:07.737Z,79.33
2016-05-17T00:24:17.737Z,79.39
2016-05-17T00:24:27.737Z,79.68
2016-05-17T00:24:37.752Z,79.77
2016-05-17T00:24:47.752Z,79.77
2016-05-17T00:24:57.752Z,79.58
2016-05-17T00:25:07.770Z,79.77
2016-05-17T00:25:17.770Z,79.49
2016-05-17T00:25:27.770Z,79.49
2016-05-17T00:25:37.770Z,79.49
2016-05-17T00:25:47.770Z,79.58
2016-05-17T00:25:57.629Z,79.58
2016-05-17T00:26:07.648Z,79.58
2016-05-17T00:26:17.789Z,79.58
2016-05-17T00:26:27.789Z,79.58
2016-05-17T00:26:37.804Z,79.11
2016-05-17T00:26:47.804Z,79.49
2016-05-17T00:26:57.804Z,79.58
2016-05-17T00:27:07.807Z,79.39
2016-05-17T00:27:17.823Z,79.68
2016-05-17T00:27:27.823Z,79.77
2016-05-17T00:27:37.823Z,79.77
2016-05-17T00:27:47.682Z,79.96
2016-05-17T00:27:57.838Z,79.77
2016-05-17T00:28:07.685Z,79.77
2016-05-17T00:28:17.841Z,79.58
2016-05-17T00:28:27.841Z,79.68
2016-05-17T00:28:37.857Z,79.68
2016-05-17T00:28:47.857Z,80.15
2016-05-17T00:28:57.716Z,79.58
2016-05-17T00:29:07.875Z,79.58
2016-05-17T00:29:17.875Z,79.96
2016-05-17T00:29:27.890Z,79.96
2016-05-17T00:29:37.890Z,79.86
2016-05-17T00:29:47.890Z,79.96
2016-05-17T00:29:57.875Z,80.05
2016-05-17T00:30:07.893Z,80.05
2016-05-17T00:30:17.753Z,79.77
2016-05-17T00:30:27.753Z,79.86
2016-05-17T00:30:37.893Z,79.96
2016-05-17T00:30:47.909Z,79.77
2016-05-17T00:30:57.909Z,79.86
2016-05-17T00:31:07.770Z,80.05
2016-05-17T00:31:17.927Z,80.05
2016-05-17T00:31:27.927Z,79.96
2016-05-17T00:31:37.770Z,79.68
2016-05-17T00:31:47.770Z,79.77
2016-05-17T00:31:57.942Z,79.86
2016-05-17T00:32:07.806Z,79.96
2016-05-17T00:32:17.946Z,80.05
2016-05-17T00:32:27.946Z,80.63
2016-05-17T00:32:37.946Z,80.24
2016-05-17T00:32:47.962Z,80.24
2016-05-17T00:32:57.962Z,80.44
2016-05-17T00:33:07.964Z,80.05
2016-05-17T00:33:17.979Z,80.24
2016-05-17T00:33:27.979Z,80.05
2016-05-17T00:33:37.979Z,80.05
2016-05-17T00:33:47.979Z,80.44
2016-05-17T00:33:57.995Z,79.96
2016-05-17T00:34:07.997Z,79.96
2016-05-17T00:34:17.997Z,80.15
2016-05-17T00:34:27.856Z,80.05
2016-05-17T00:34:37.997Z,80.15
2016-05-17T00:34:48.013Z,80.34
2016-05-17T00:34:58.013Z,80.15
2016-05-17T00:35:08.016Z,80.15
2016-05-17T00:35:18.031Z,80.34
2016-05-17T00:35:28.031Z,80.24
2016-05-17T00:35:38.031Z,80.05
2016-05-17T00:35:47.875Z,80.15
2016-05-17T00:35:58.047Z,80.05
2016-05-17T00:36:08.050Z,80.24
2016-05-17T00:36:18.050Z,80.34
2016-05-17T00:36:28.628Z,80.05
2016-05-17T00:36:38.066Z,80.53
2016-05-17T00:36:48.269Z,80.05
2016-05-17T00:36:58.003Z,80.72
2016-05-17T00:37:07.928Z,80.15
2016-05-17T00:37:18.303Z,80.82
2016-05-17T00:37:28.084Z,80.44
2016-05-17T00:37:38.084Z,80.63
2016-05-17T00:37:48.084Z,80.63
2016-05-17T00:37:58.100Z,80.15
2016-05-17T00:38:08.103Z,80.24
2016-05-17T00:38:18.103Z,80.34
2016-05-17T00:38:28.103Z,80.53
2016-05-17T00:38:38.118Z,80.24
2016-05-17T00:38:48.118Z,80.82
2016-05-17T00:38:58.118Z,80.53
2016-05-17T00:39:08.152Z,80.15
2016-05-17T00:39:17.980Z,80.24
2016-05-17T00:39:28.136Z,80.24
2016-05-17T00:39:38.136Z,80.24
2016-05-17T00:39:48.136Z,80.24
2016-05-17T00:39:58.152Z,80.15
2016-05-17T00:40:08.155Z,80.24
2016-05-17T00:40:18.155Z,80.34
2016-05-17T00:40:28.170Z,80.72
2016-05-17T00:40:38.170Z,80.44
2016-05-17T00:40:48.186Z,80.44
2016-05-17T00:40:58.186Z,80.53
2016-05-17T00:41:08.188Z,81.2
2016-05-17T00:41:18.188Z,81.1
2016-05-17T00:41:28.188Z,80.91
2016-05-17T00:41:38.188Z,81.01
2016-05-17T00:41:48.204Z,80.91
2016-05-17T00:41:58.204Z,81.2
2016-05-17T00:42:08.207Z,80.91
2016-05-17T00:42:18.207Z,80.91
2016-05-17T00:42:28.207Z,80.91
2016-05-17T00:42:38.222Z,81.2
2016-05-17T00:42:48.222Z,80.91
2016-05-17T00:42:58.222Z,81.01
2016-05-17T00:43:08.241Z,81.01
2016-05-17T00:43:18.241Z,80.72
2016-05-17T00:43:28.256Z,81.1
2016-05-17T00:43:38.241Z,80.91
2016-05-17T00:43:48.256Z,80.82
2016-05-17T00:43:58.256Z,80.91
2016-05-17T00:44:08.259Z,81.1
2016-05-17T00:44:18.259Z,81.1
2016-05-17T00:44:28.259Z,81.1
2016-05-17T00:44:38.291Z,80.91
2016-05-17T00:44:48.275Z,81.01
2016-05-17T00:44:58.275Z,81.1
2016-05-17T00:45:08.294Z,81.1
2016-05-17T00:45:18.294Z,81.1
2016-05-17T00:45:28.137Z,81.1
2016-05-17T00:45:38.294Z,80.82
2016-05-17T00:45:48.137Z,80.91
2016-05-17T00:45:58.309Z,80.82
2016-05-17T00:46:08.311Z,80.82
2016-05-17T00:46:18.171Z,80.91
2016-05-17T00:46:28.327Z,80.82
2016-05-17T00:46:38.327Z,80.82
2016-05-17T00:46:48.343Z,81.1
2016-05-17T00:46:58.327Z,81.1
2016-05-17T00:47:08.330Z,80.82
2016-05-17T00:47:18.346Z,80.91
2016-05-17T00:47:28.346Z,80.91
2016-05-17T00:47:38.346Z,80.72
2016-05-17T00:47:48.361Z,81.2
2016-05-17T00:47:58.361Z,80.91
2016-05-17T00:48:08.380Z,81.48
2016-05-17T00:48:18.380Z,81.48
2016-05-17T00:48:28.380Z,81.48
2016-05-17T00:48:38.224Z,81.29
2016-05-17T00:48:48.380Z,81.38
2016-05-17T00:48:58.380Z,81.38
2016-05-17T00:49:08.397Z,81.38
2016-05-17T00:49:18.397Z,81.48
2016-05-17T00:49:28.397Z,81.48
2016-05-17T00:49:38.397Z,81.2
2016-05-17T00:49:48.257Z,81.38
2016-05-17T00:49:58.413Z,81.29
2016-05-17T00:50:08.415Z,81.2
2016-05-17T00:50:18.415Z,81.38
2016-05-17T00:50:28.431Z,81.29
2016-05-17T00:50:38.431Z,81.2
2016-05-17T00:50:48.431Z,81.01
2016-05-17T00:50:58.431Z,81.1
2016-05-17T00:51:08.449Z,81.2
2016-05-17T00:51:18.465Z,81.2
2016-05-17T00:51:28.449Z,81.2
2016-05-17T00:51:38.449Z,81.2
2016-05-17T00:51:48.309Z,81.38
2016-05-17T00:51:58.465Z,81.2
2016-05-17T00:52:08.593Z,81.29
2016-05-17T00:52:18.499Z,81.2
2016-05-17T00:52:28.484Z,81.2
2016-05-17T00:52:38.327Z,81.2
2016-05-17T00:52:48.484Z,81.01
2016-05-17T00:52:58.484Z,81.38
2016-05-17T00:53:08.502Z,81.1
2016-05-17T00:53:18.502Z,81.2
2016-05-17T00:53:28.502Z,81.38
2016-05-17T00:53:38.362Z,81.1
2016-05-17T00:53:48.502Z,81.1
2016-05-17T00:53:58.518Z,81.48
2016-05-17T00:54:08.520Z,81.48
2016-05-17T00:54:18.535Z,81.2
2016-05-17T00:54:28.535Z,81.01
2016-05-17T00:54:38.535Z,81.38
2016-05-17T00:54:48.535Z,81.29
2016-05-17T00:54:58.551Z,81.48
2016-05-17T00:55:08.554Z,81.48
2016-05-17T00:55:18.554Z,81.77
2016-05-17T00:55:28.554Z,81.67
2016-05-17T00:55:38.554Z,81.2
2016-05-17T00:55:48.570Z,81.29
2016-05-17T00:55:58.570Z,81.29
2016-05-17T00:56:08.573Z,81.48
2016-05-17T00:56:18.573Z,81.38
2016-05-17T00:56:28.588Z,81.29
2016-05-17T00:56:38.588Z,81.29
2016-05-17T00:56:48.604Z,81.67
2016-05-17T00:56:58.588Z,81.38
2016-05-17T00:57:08.606Z,81.48
2016-05-17T00:57:18.606Z,81.48
2016-05-17T00:57:28.606Z,81.29
2016-05-17T00:57:38.606Z,81.48
2016-05-17T00:57:48.622Z,81.2
2016-05-17T00:57:58.465Z,81.77
2016-05-17T00:58:08.625Z,81.38
2016-05-17T00:58:18.625Z,81.38
2016-05-17T00:58:28.640Z,81.48
2016-05-17T00:58:38.640Z,81.58
2016-05-17T00:58:48.640Z,81.58
2016-05-17T00:58:58.656Z,81.67
2016-05-17T00:59:08.659Z,81.67
2016-05-17T00:59:18.503Z,81.48
2016-05-17T00:59:28.659Z,81.38
2016-05-17T00:59:38.674Z,81.29
2016-05-17T00:59:48.518Z,81.29
2016-05-17T00:59:58.690Z,81.38
2016-05-17T01:00:08.693Z,81.48
2016-05-17T01:00:18.693Z,81.48
2016-05-17T01:00:28.677Z,81.48
2016-05-17T01:00:38.693Z,81.77
2016-05-17T01:00:48.693Z,81.77
2016-05-17T01:00:58.709Z,81.86
2016-05-17T01:01:08.712Z,81.86
2016-05-17T01:01:18.712Z,81.86
2016-05-17T01:01:28.712Z,81.96
2016-05-17T01:01:38.712Z,82.05
2016-05-17T01:01:48.571Z,81.86
2016-05-17T01:01:58.571Z,81.77
2016-05-17T01:02:08.729Z,82.05
2016-05-17T01:02:18.729Z,81.67
2016-05-17T01:02:28.745Z,81.58
2016-05-17T01:02:38.745Z,81.67
2016-05-17T01:02:48.745Z,81.77
2016-05-17T01:02:58.761Z,81.77
2016-05-17T01:03:08.764Z,81.58
2016-05-17T01:03:18.764Z,81.58
2016-05-17T01:03:28.779Z,81.58
2016-05-17T01:03:38.779Z,81.67
2016-05-17T01:03:48.623Z,81.67
2016-05-17T01:03:58.779Z,81.58
2016-05-17T01:04:08.641Z,81.67
2016-05-17T01:04:18.641Z,81.67
2016-05-17T01:04:28.797Z,81.77
2016-05-17T01:04:38.797Z,81.67
2016-05-17T01:04:48.797Z,81.67
2016-05-17T01:04:58.812Z,81.58
2016-05-17T01:05:08.815Z,81.58
2016-05-17T01:05:18.815Z,81.77
2016-05-17T01:05:28.815Z,81.58
2016-05-17T01:05:38.831Z,81.77
2016-05-17T01:05:48.831Z,81.67
2016-05-17T01:05:58.831Z,81.58
2016-05-17T01:06:08.849Z,81.77
2016-05-17T01:06:18.849Z,81.58
2016-05-17T01:06:29.255Z,81.58
2016-05-17T01:06:39.536Z,81.77
2016-05-17T01:06:49.192Z,81.96
2016-05-17T01:06:58.708Z,81.86
2016-05-17T01:07:08.712Z,82.05
2016-05-17T01:07:18.868Z,81.96
2016-05-17T01:07:28.884Z,81.96
2016-05-17T01:07:38.884Z,81.96
2016-05-17T01:07:48.884Z,81.96
2016-05-17T01:07:58.900Z,81.96
2016-05-17T01:08:08.886Z,82.05
2016-05-17T01:08:18.886Z,81.96
2016-05-17T01:08:28.902Z,81.96
2016-05-17T01:08:38.902Z,82.05
2016-05-17T01:08:48.745Z,81.77
2016-05-17T01:08:58.917Z,81.86
2016-05-17T01:09:08.920Z,81.67
2016-05-17T01:09:18.920Z,81.77
2016-05-17T01:09:28.920Z,81.77
2016-05-17T01:09:38.936Z,81.67
2016-05-17T01:09:48.936Z,81.77
2016-05-17T01:09:58.936Z,81.77
2016-05-17T01:10:08.798Z,81.77
2016-05-17T01:10:18.954Z,81.58
2016-05-17T01:10:28.954Z,81.77
2016-05-17T01:10:38.970Z,81.58
2016-05-17T01:10:48.970Z,81.67
2016-05-17T01:10:58.970Z,81.67
2016-05-17T01:11:08.972Z,81.77
2016-05-17T01:11:18.972Z,81.38
2016-05-17T01:11:28.988Z,81.38
2016-05-17T01:11:38.988Z,81.58
2016-05-17T01:11:48.988Z,81.48
2016-05-17T01:11:58.831Z,81.58
2016-05-17T01:12:09.006Z,81.77
2016-05-17T01:12:19.006Z,81.38
2016-05-17T01:12:29.022Z,81.67
2016-05-17T01:12:39.022Z,81.77
2016-05-17T01:12:49.006Z,81.48
2016-05-17T01:12:59.022Z,81.77
2016-05-17T01:13:09.025Z,81.48
2016-05-17T01:13:19.025Z,81.48
2016-05-17T01:13:29.041Z,81.77
2016-05-17T01:13:38.869Z,81.77
2016-05-17T01:13:49.041Z,81.48
2016-05-17T01:13:59.041Z,81.48
2016-05-17T01:14:08.902Z,81.67
2016-05-17T01:14:19.058Z,81.58
2016-05-17T01:14:29.058Z,81.77
2016-05-17T01:14:39.058Z,81.58
2016-05-17T01:14:49.074Z,81.77
2016-05-17T01:14:59.058Z,81.77
2016-05-17T01:15:09.077Z,81.67
2016-05-17T01:15:19.077Z,81.77
2016-05-17T01:15:29.077Z,81.77
2016-05-17T01:15:39.077Z,81.58
2016-05-17T01:15:49.092Z,81.58
2016-05-17T01:15:59.092Z,81.77
2016-05-17T01:16:09.111Z,81.58
2016-05-17T01:16:19.111Z,81.67
2016-05-17T01:16:29.111Z,81.58
2016-05-17T01:16:38.955Z,81.77
2016-05-17T01:16:49.111Z,81.58
2016-05-17T01:16:58.970Z,81.58
2016-05-17T01:17:09.130Z,81.58
2016-05-17T01:17:19.130Z,81.58
2016-05-17T01:17:29.130Z,81.58
2016-05-17T01:17:39.145Z,81.58
2016-05-17T01:17:49.161Z,81.67
2016-05-17T01:17:59.145Z,81.77
2016-05-17T01:18:09.179Z,81.96
2016-05-17T01:18:19.163Z,82.05
2016-05-17T01:18:29.163Z,81.86
2016-05-17T01:18:39.163Z,81.86
2016-05-17T01:18:49.179Z,81.67
2016-05-17T01:18:59.179Z,81.86
2016-05-17T01:19:09.182Z,81.77
2016-05-17T01:19:19.182Z,81.58
2016-05-17T01:19:29.197Z,81.86
2016-05-17T01:19:39.182Z,81.86
2016-05-17T01:19:49.197Z,81.86
2016-05-17T01:19:59.197Z,81.86
2016-05-17T01:20:09.216Z,81.86
2016-05-17T01:20:19.419Z,81.86
2016-05-17T01:20:29.216Z,81.86
2016-05-17T01:20:39.216Z,81.86
2016-05-17T01:20:49.231Z,81.48
2016-05-17T01:20:59.231Z,81.48
2016-05-17T01:21:09.077Z,81.38
2016-05-17T01:21:19.249Z,81.38
2016-05-17T01:21:29.108Z,81.29
2016-05-17T01:21:39.249Z,81.29
2016-05-17T01:21:49.093Z,81.38
2016-05-17T01:21:59.249Z,81.48
2016-05-17T01:22:09.268Z,81.48
2016-05-17T01:22:19.111Z,81.48
2016-05-17T01:22:29.268Z,81.58
2016-05-17T01:22:39.268Z,81.58
2016-05-17T01:22:49.283Z,81.86
2016-05-17T01:22:59.283Z,81.86
2016-05-17T01:23:09.285Z,81.77
2016-05-17T01:23:19.285Z,81.96
2016-05-17T01:23:29.301Z,81.96
2016-05-17T01:23:39.301Z,81.58
2016-05-17T01:23:49.301Z,81.77
2016-05-17T01:23:59.317Z,81.77
2016-05-17T01:24:09.320Z,81.67
2016-05-17T01:24:19.163Z,81.77
2016-05-17T01:24:29.320Z,81.77
2016-05-17T01:24:39.320Z,81.58
2016-05-17T01:24:49.335Z,81.58
2016-05-17T01:24:59.335Z,81.67
2016-05-17T01:25:09.338Z,81.77
2016-05-17T01:25:19.338Z,81.58
2016-05-17T01:25:29.198Z,81.67
2016-05-17T01:25:39.354Z,81.77
2016-05-17T01:25:49.354Z,81.77
2016-05-17T01:25:59.198Z,81.67
2016-05-17T01:26:09.372Z,81.67
2016-05-17T01:26:19.372Z,81.58
2016-05-17T01:26:29.372Z,81.48
2016-05-17T01:26:39.372Z,81.48
2016-05-17T01:26:49.232Z,81.48
2016-05-17T01:26:59.388Z,81.58
2016-05-17T01:27:09.390Z,81.58
2016-05-17T01:27:19.390Z,81.58
2016-05-17T01:27:29.390Z,81.67
2016-05-17T01:27:39.249Z,81.58
2016-05-17T01:27:49.406Z,81.58
2016-05-17T01:27:59.406Z,81.67
2016-05-17T01:28:09.268Z,81.86
2016-05-17T01:28:19.424Z,81.67
2016-05-17T01:28:29.424Z,81.86
2016-05-17T01:28:39.424Z,81.86
2016-05-17T01:28:49.284Z,81.58
2016-05-17T01:28:59.284Z,81.67
2016-05-17T01:29:09.442Z,81.67
2016-05-17T01:29:19.442Z,81.58
2016-05-17T01:29:29.442Z,81.48
2016-05-17T01:29:39.458Z,81.48
2016-05-17T01:29:49.458Z,81.48
2016-05-17T01:29:59.473Z,81.48
2016-05-17T01:30:09.476Z,81.48
2016-05-17T01:30:19.476Z,81.77
2016-05-17T01:30:29.476Z,81.48
2016-05-17T01:30:39.492Z,81.77
2016-05-17T01:30:49.492Z,81.58
2016-05-17T01:30:59.336Z,81.48
2016-05-17T01:31:09.495Z,81.77
2016-05-17T01:31:19.495Z,81.58
2016-05-17T01:31:29.510Z,81.58
2016-05-17T01:31:39.495Z,81.77
2016-05-17T01:31:49.354Z,81.96
2016-05-17T01:31:59.510Z,81.58
2016-05-17T01:32:09.528Z,81.67
2016-05-17T01:32:19.528Z,81.77
2016-05-17T01:32:29.528Z,81.58
2016-05-17T01:32:39.372Z,81.77
2016-05-17T01:32:49.544Z,81.77
2016-05-17T01:32:59.544Z,81.58
2016-05-17T01:33:09.548Z,81.58
2016-05-17T01:33:19.548Z,81.58
2016-05-17T01:33:29.563Z,81.58
2016-05-17T01:33:39.563Z,81.67
2016-05-17T01:33:49.563Z,81.77
2016-05-17T01:33:59.563Z,81.67
2016-05-17T01:34:09.565Z,81.77
2016-05-17T01:34:19.581Z,81.67
2016-05-17T01:34:29.581Z,81.67
2016-05-17T01:34:39.581Z,81.58
2016-05-17T01:34:49.597Z,82.05
2016-05-17T01:34:59.597Z,82.05
2016-05-17T01:35:09.600Z,81.86
2016-05-17T01:35:19.615Z,81.86
2016-05-17T01:35:29.443Z,81.86
2016-05-17T01:35:39.615Z,81.86
2016-05-17T01:35:49.615Z,82.05
2016-05-17T01:35:59.631Z,81.86
2016-05-17T01:36:09.634Z,81.86
2016-05-17T01:36:19.634Z,81.86
2016-05-17T01:36:29.649Z,81.86
2016-05-17T01:36:39.946Z,81.86
2016-05-17T01:36:49.868Z,81.86
2016-05-17T01:36:59.649Z,81.58
2016-05-17T01:37:09.651Z,81.58
2016-05-17T01:37:19.667Z,81.38
2016-05-17T01:37:29.511Z,81.58
2016-05-17T01:37:39.667Z,81.29
2016-05-17T01:37:49.698Z,81.48
2016-05-17T01:37:59.683Z,81.38
2016-05-17T01:38:09.686Z,81.38
2016-05-17T01:38:19.686Z,81.29
2016-05-17T01:38:29.686Z,81.38
2016-05-17T01:38:39.701Z,81.29
2016-05-17T01:38:49.701Z,81.48
2016-05-17T01:38:59.701Z,81.67
2016-05-17T01:39:09.703Z,81.48
2016-05-17T01:39:19.719Z,81.77
2016-05-17T01:39:29.719Z,81.86
2016-05-17T01:39:39.719Z,81.86
2016-05-17T01:39:49.719Z,81.96
2016-05-17T01:39:59.735Z,81.96
2016-05-17T01:40:09.738Z,81.58
2016-05-17T01:40:19.738Z,81.86
2016-05-17T01:40:29.738Z,81.58
2016-05-17T01:40:39.738Z,81.2
2016-05-17T01:40:49.597Z,81.58
2016-05-17T01:40:59.753Z,81.67
2016-05-17T01:41:09.756Z,81.58
2016-05-17T01:41:19.756Z,81.58
2016-05-17T01:41:29.772Z,81.2
2016-05-17T01:41:39.616Z,81.67
2016-05-17T01:41:49.772Z,81.67
2016-05-17T01:41:59.787Z,81.29
2016-05-17T01:42:09.790Z,81.29
2016-05-17T01:42:19.790Z,81.48
2016-05-17T01:42:29.790Z,81.48
2016-05-17T01:42:39.790Z,81.29
2016-05-17T01:42:49.806Z,81.38
2016-05-17T01:42:59.806Z,81.29
2016-05-17T01:43:09.808Z,81.48
2016-05-17T01:43:19.808Z,81.29
2016-05-17T01:43:29.824Z,81.2
2016-05-17T01:43:39.824Z,81.38
2016-05-17T01:43:49.824Z,81.67
2016-05-17T01:43:59.824Z,81.48
2016-05-17T01:44:09.842Z,81.29
2016-05-17T01:44:19.842Z,81.2
2016-05-17T01:44:29.842Z,81.58
2016-05-17T01:44:39.858Z,81.29
2016-05-17T01:44:49.858Z,81.29
2016-05-17T01:44:59.858Z,81.48
2016-05-17T01:45:09.860Z,81.48
2016-05-17T01:45:19.860Z,81.29
2016-05-17T01:45:29.719Z,81.67
2016-05-17T01:45:39.876Z,81.48
2016-05-17T01:45:49.876Z,81.29
2016-05-17T01:45:59.891Z,81.2
2016-05-17T01:46:09.894Z,81.67
2016-05-17T01:46:19.894Z,81.67
2016-05-17T01:46:29.894Z,81.67
2016-05-17T01:46:39.894Z,81.29
2016-05-17T01:46:49.894Z,81.38
2016-05-17T01:46:59.910Z,81.58
2016-05-17T01:47:09.913Z,81.29
2016-05-17T01:47:19.913Z,81.29
2016-05-17T01:47:29.928Z,81.2
2016-05-17T01:47:39.928Z,81.48
2016-05-17T01:47:49.928Z,81.38
2016-05-17T01:47:59.928Z,81.48
2016-05-17T01:48:09.930Z,81.29
2016-05-17T01:48:19.946Z,81.29
2016-05-17T01:48:29.946Z,81.2
2016-05-17T01:48:39.946Z,81.38
2016-05-17T01:48:49.962Z,81.38
2016-05-17T01:48:59.962Z,81.01
2016-05-17T01:49:09.981Z,81.29
2016-05-17T01:49:19.981Z,81.2
2016-05-17T01:49:29.981Z,81.1
2016-05-17T01:49:39.981Z,81.2
2016-05-17T01:49:49.981Z,81.2
2016-05-17T01:49:59.981Z,81.48
2016-05-17T01:50:09.843Z,81.1
2016-05-17T01:50:19.999Z,81.2
2016-05-17T01:50:29.999Z,81.01
2016-05-17T01:50:40.015Z,81.38
2016-05-17T01:50:50.015Z,81.38
2016-05-17T01:51:00.015Z,81.29
2016-05-17T01:51:10.018Z,81.2
2016-05-17T01:51:20.549Z,81.01
2016-05-17T01:51:30.408Z,81.2
2016-05-17T01:51:40.033Z,81.01
2016-05-17T01:51:50.439Z,81.2
2016-05-17T01:52:00.033Z,81.38
2016-05-17T01:52:10.052Z,81.2
2016-05-17T01:52:19.896Z,81.29
2016-05-17T01:52:30.052Z,81.2
2016-05-17T01:52:40.052Z,81.2
2016-05-17T01:52:50.067Z,81.38
2016-05-17T01:53:00.067Z,81.29
2016-05-17T01:53:10.069Z,81.38
2016-05-17T01:53:20.085Z,81.1
2016-05-17T01:53:30.085Z,81.2
2016-05-17T01:53:39.929Z,81.1
2016-05-17T01:53:49.929Z,81.2
2016-05-17T01:54:00.101Z,81.38
2016-05-17T01:54:10.104Z,81.2
2016-05-17T01:54:20.104Z,81.2
2016-05-17T01:54:30.104Z,81.1
2016-05-17T01:54:39.963Z,81.29
2016-05-17T01:54:50.119Z,81.1
2016-05-17T01:55:00.119Z,81.48
2016-05-17T01:55:10.121Z,81.48
2016-05-17T01:55:19.981Z,81.2
2016-05-17T01:55:30.137Z,81.48
2016-05-17T01:55:39.981Z,81.48
2016-05-17T01:55:50.137Z,81.48
2016-05-17T01:56:00.137Z,81.2
2016-05-17T01:56:10.156Z,81.48
2016-05-17T01:56:19.999Z,81.38
2016-05-17T01:56:30.156Z,81.38
2016-05-17T01:56:40.171Z,81.38
2016-05-17T01:56:50.171Z,80.82
2016-05-17T01:57:00.171Z,81.01
2016-05-17T01:57:10.174Z,81.1
2016-05-17T01:57:20.190Z,81.01
2016-05-17T01:57:30.190Z,81.1
2016-05-17T01:57:40.190Z,81.01
2016-05-17T01:57:50.190Z,81.1
2016-05-17T01:58:00.190Z,80.91
2016-05-17T01:58:10.208Z,80.82
2016-05-17T01:58:20.208Z,80.72
2016-05-17T01:58:30.208Z,80.72
2016-05-17T01:58:40.208Z,81.2
2016-05-17T01:58:50.224Z,81.1
2016-05-17T01:59:00.068Z,80.91
2016-05-17T01:59:10.226Z,81.01
2016-05-17T01:59:20.085Z,80.91
2016-05-17T01:59:30.242Z,81.1
2016-05-17T01:59:40.242Z,81.2
2016-05-17T01:59:50.257Z,80.82
2016-05-17T02:00:00.242Z,81.01
2016-05-17T02:00:10.260Z,80.91
2016-05-17T02:00:20.260Z,81.1
2016-05-17T02:00:30.104Z,80.91
2016-05-17T02:00:40.276Z,80.91
2016-05-17T02:00:50.120Z,80.91
2016-05-17T02:01:00.292Z,81.01
2016-05-17T02:01:10.295Z,80.82
2016-05-17T02:01:20.295Z,80.82
2016-05-17T02:01:30.138Z,80.82
2016-05-17T02:01:40.295Z,81.1
2016-05-17T02:01:50.310Z,80.91
2016-05-17T02:02:00.310Z,81.1
2016-05-17T02:02:10.156Z,81.01
2016-05-17T02:02:20.328Z,81.1
2016-05-17T02:02:30.312Z,81.01
2016-05-17T02:02:40.328Z,81.1
2016-05-17T02:02:50.328Z,81.1
2016-05-17T02:03:00.328Z,81.1
2016-05-17T02:03:10.331Z,81.2
2016-05-17T02:03:20.346Z,80.91
2016-05-17T02:03:30.346Z,80.91
2016-05-17T02:03:40.346Z,81.01
2016-05-17T02:03:50.346Z,80.91
2016-05-17T02:04:00.362Z,81.01
2016-05-17T02:04:10.364Z,80.72
2016-05-17T02:04:20.364Z,80.72
2016-05-17T02:04:30.364Z,80.82
2016-05-17T02:04:40.380Z,80.82
2016-05-17T02:04:50.380Z,80.63
2016-05-17T02:05:00.380Z,80.72
2016-05-17T02:05:10.227Z,80.63
2016-05-17T02:05:20.399Z,80.82
2016-05-17T02:05:30.243Z,80.91
2016-05-17T02:05:40.399Z,80.72
2016-05-17T02:05:50.399Z,80.63
2016-05-17T02:06:00.415Z,80.91
2016-05-17T02:06:10.417Z,81.2
2016-05-17T02:06:20.323Z,80.91
2016-05-17T02:06:30.433Z,81.01
2016-05-17T02:06:40.604Z,81.1
2016-05-17T02:06:50.604Z,81.29
2016-05-17T02:07:00.698Z,81.1
2016-05-17T02:07:10.451Z,80.53
2016-05-17T02:07:20.295Z,81.01
2016-05-17T02:07:30.451Z,81.01
2016-05-17T02:07:40.451Z,81.2
2016-05-17T02:07:50.451Z,80.44
2016-05-17T02:08:00.467Z,81.29
2016-05-17T02:08:10.470Z,81.1
2016-05-17T02:08:20.470Z,80.44
2016-05-17T02:08:30.314Z,80.34
2016-05-17T02:08:40.485Z,80.63
2016-05-17T02:08:50.485Z,80.91
2016-05-17T02:09:00.501Z,81.1
2016-05-17T02:09:10.487Z,80.82
2016-05-17T02:09:20.347Z,81.01
2016-05-17T02:09:30.503Z,81.01